createdAt,value
2024-03-12T00:02:18.060Z,98229.63
2024-03-12T00:04:45.339Z,98233.00
2024-03-12T00:07:12.630Z,98232.78
2024-03-12T00:09:41.246Z,98226.81
2024-03-12T00:12:09.006Z,98225.25
2024-03-12T00:14:36.160Z,98223.94
2024-03-12T00:17:03.337Z,98221.59
2024-03-12T00:19:30.494Z,98210.72
2024-03-12T00:21:58.633Z,98209.63
2024-03-12T00:24:25.795Z,98207.56
2024-03-12T00:26:54.710Z,98210.94
2024-03-12T00:29:22.994Z,98200.59
2024-03-12T00:31:50.336Z,98208.53
2024-03-12T00:34:17.501Z,98208.53
2024-03-12T00:36:45.263Z,98224.28
2024-03-12T00:39:12.518Z,98221.94
2024-03-12T00:41:39.692Z,98210.03
2024-03-12T00:44:08.548Z,98210.56
2024-03-12T00:46:37.189Z,98205.88
2024-03-12T00:49:04.521Z,98200.09
2024-03-12T00:51:34.728Z,98207.69
2024-03-12T00:54:03.372Z,98183.06
2024-03-12T00:56:30.530Z,98180.88
2024-03-12T00:58:57.702Z,98177.13
2024-03-12T01:01:27.691Z,98172.13
2024-03-12T01:03:56.019Z,98184.50
2024-03-12T01:06:23.358Z,98179.84
2024-03-12T01:08:50.625Z,98178.88
2024-03-12T01:11:17.918Z,98170.09
2024-03-12T01:13:48.820Z,98166.50
2024-03-12T01:16:16.247Z,98159.78
2024-03-12T01:18:44.910Z,98165.22
2024-03-12T01:21:12.117Z,98165.22
2024-03-12T01:23:41.205Z,98158.03
2024-03-12T01:26:08.562Z,98154.19
2024-03-12T01:28:36.268Z,98148.97
2024-03-12T01:31:03.969Z,98142.22
2024-03-12T01:33:31.915Z,98139.34
2024-03-12T01:36:20.216Z,98138.03
2024-03-12T01:38:49.869Z,98137.25
2024-03-12T01:41:17.379Z,98136.16
2024-03-12T01:43:44.652Z,98137.88
2024-03-12T01:46:11.889Z,98121.31
2024-03-12T01:48:41.956Z,98121.78
2024-03-12T01:51:10.689Z,98120.50
2024-03-12T01:53:39.474Z,98126.94
2024-03-12T01:56:06.993Z,98115.97
2024-03-12T01:58:34.195Z,98117.34
2024-03-12T02:01:01.456Z,98108.75
2024-03-12T02:03:33.461Z,98103.22
2024-03-12T02:06:01.162Z,98103.91
2024-03-12T02:08:30.396Z,98104.28
2024-03-12T02:10:57.794Z,98109.69
2024-03-12T02:13:24.943Z,98106.00
2024-03-12T02:15:52.427Z,98113.63
2024-03-12T02:18:19.585Z,98106.06
2024-03-12T02:20:47.228Z,98098.50
2024-03-12T02:23:14.669Z,98104.97
2024-03-12T02:25:44.282Z,98103.06
2024-03-12T02:28:11.622Z,98100.03
2024-03-12T02:30:39.109Z,98094.31
2024-03-12T02:33:06.501Z,98099.59
2024-03-12T02:35:36.111Z,98102.91
2024-03-12T02:38:03.568Z,98107.84
2024-03-12T02:40:30.721Z,98100.69
2024-03-12T02:42:59.361Z,98094.72
2024-03-12T02:45:26.591Z,98098.09
2024-03-12T02:47:53.944Z,98091.69
2024-03-12T02:50:21.351Z,98079.59
2024-03-12T02:52:49.176Z,98080.28
2024-03-12T02:55:16.631Z,98089.50
2024-03-12T02:57:44.569Z,98074.72
2024-03-12T03:00:15.449Z,98078.44
2024-03-12T03:02:43.618Z,98082.84
2024-03-12T03:05:11.508Z,98084.94
2024-03-12T03:07:41.336Z,98081.25
2024-03-12T03:10:09.492Z,98084.41
2024-03-12T03:12:36.892Z,98077.06
2024-03-12T03:15:05.119Z,98076.72
2024-03-12T03:17:33.733Z,98081.31
2024-03-12T03:20:01.020Z,98080.53
2024-03-12T03:22:29.223Z,98076.94
2024-03-12T03:24:56.582Z,98073.84
2024-03-12T03:27:23.907Z,98077.16
2024-03-12T03:29:51.171Z,98069.44
2024-03-12T03:32:19.680Z,98070.47
2024-03-12T03:34:48.264Z,98068.34
2024-03-12T03:37:16.116Z,98069.13
2024-03-12T03:39:43.658Z,98069.13
2024-03-12T03:42:10.927Z,98065.69
2024-03-12T03:44:38.116Z,98060.53
2024-03-12T03:47:05.505Z,98057.16
2024-03-12T03:49:32.695Z,98055.84
2024-03-12T03:52:01.385Z,98048.00
2024-03-12T03:54:28.583Z,98038.72
2024-03-12T03:56:56.137Z,98046.69
2024-03-12T03:59:23.307Z,98036.38
2024-03-12T04:01:50.904Z,98045.66
2024-03-12T04:04:20.416Z,98048.47
2024-03-12T04:06:50.347Z,98054.97
2024-03-12T04:09:21.422Z,98048.81
2024-03-12T04:11:50.151Z,98040.63
2024-03-12T04:14:19.272Z,98042.97
2024-03-12T04:16:46.822Z,98044.06
2024-03-12T04:19:14.637Z,98047.44
2024-03-12T04:21:42.300Z,98048.53
2024-03-12T04:24:12.009Z,98041.09
2024-03-12T04:26:40.873Z,98044.13
2024-03-12T04:29:08.690Z,98044.94
2024-03-12T04:31:35.939Z,98041.66
2024-03-12T04:34:03.943Z,98049.94
2024-03-12T04:36:32.583Z,98051.75
2024-03-12T04:38:59.881Z,98049.94
2024-03-12T04:41:27.413Z,98049.69
2024-03-12T04:43:56.340Z,98046.25
2024-03-12T04:46:23.537Z,98045.84
2024-03-12T04:48:51.202Z,98042.41
2024-03-12T04:51:19.067Z,98038.38
2024-03-12T04:53:46.577Z,98046.59
2024-03-12T04:56:17.872Z,98050.16
2024-03-12T04:58:45.349Z,98047.06
2024-03-12T05:01:15.003Z,98041.34
2024-03-12T05:03:42.235Z,98041.78
2024-03-12T05:06:09.374Z,98034.50
2024-03-12T05:08:36.560Z,98030.28
2024-03-12T05:11:04.268Z,98015.75
2024-03-12T05:13:32.150Z,98017.75
2024-03-12T05:15:59.446Z,98036.78
2024-03-12T05:18:28.285Z,98029.53
2024-03-12T05:20:55.422Z,98030.31
2024-03-12T05:23:22.601Z,98040.38
2024-03-12T05:25:52.530Z,98036.78
2024-03-12T05:28:20.970Z,98027.06
2024-03-12T05:30:50.564Z,98029.41
2024-03-12T05:33:18.052Z,98028.16
2024-03-12T05:35:51.044Z,98031.84
2024-03-12T05:38:35.171Z,98031.59
2024-03-12T05:41:16.305Z,98044.94
2024-03-12T05:44:02.274Z,98051.53
2024-03-12T05:46:49.000Z,98047.69
2024-03-12T05:49:17.089Z,98050.28
2024-03-12T05:51:45.777Z,98055.44
2024-03-12T05:54:12.965Z,98056.56
2024-03-12T05:56:41.071Z,98069.25
2024-03-12T05:59:08.595Z,98068.06
2024-03-12T06:01:36.363Z,98068.38
2024-03-12T06:04:06.628Z,98079.81
2024-03-12T06:06:34.379Z,98085.28
2024-03-12T06:09:03.261Z,98091.31
2024-03-12T06:11:31.373Z,98098.38
2024-03-12T06:14:02.124Z,98115.97
2024-03-12T06:16:31.704Z,98118.22
2024-03-12T06:18:59.020Z,98129.16
2024-03-12T06:21:26.314Z,98132.09
2024-03-12T06:23:55.101Z,98129.38
2024-03-12T06:26:24.242Z,98126.81
2024-03-12T06:28:51.816Z,98130.41
2024-03-12T06:31:20.162Z,98137.09
2024-03-12T06:33:50.253Z,98138.34
2024-03-12T06:36:17.441Z,98129.16
2024-03-12T06:38:44.800Z,98137.91
2024-03-12T06:41:12.303Z,98145.25
2024-03-12T06:43:42.414Z,98151.84
2024-03-12T06:46:10.777Z,98157.00
2024-03-12T06:48:38.463Z,98155.66
2024-03-12T06:51:08.736Z,98154.19
2024-03-12T06:53:38.825Z,98154.09
2024-03-12T06:56:08.143Z,98157.63
2024-03-12T06:58:35.436Z,98157.31
2024-03-12T07:01:05.632Z,98140.66
2024-03-12T07:03:35.281Z,98145.25
2024-03-12T07:06:04.105Z,98162.66
2024-03-12T07:08:31.228Z,98158.19
2024-03-12T07:10:58.636Z,98156.06
2024-03-12T07:13:27.674Z,98155.28
2024-03-12T07:15:55.046Z,98129.44
2024-03-12T07:18:24.703Z,98098.16
2024-03-12T07:20:53.986Z,98080.50
2024-03-12T07:23:22.011Z,98093.94
2024-03-12T07:25:49.399Z,98090.03
2024-03-12T07:28:17.421Z,98077.59
2024-03-12T07:30:46.594Z,98068.75
2024-03-12T07:33:14.079Z,98068.66
2024-03-12T07:35:42.753Z,98069.53
2024-03-12T07:38:09.951Z,98077.03
2024-03-12T07:40:39.352Z,98079.38
2024-03-12T07:43:07.315Z,98076.81
2024-03-12T07:45:36.970Z,98080.59
2024-03-12T07:48:06.987Z,98080.59
2024-03-12T07:50:36.369Z,98074.91
2024-03-12T07:53:07.277Z,98067.06
2024-03-12T07:55:36.683Z,98061.69
2024-03-12T07:58:04.301Z,98069.63
2024-03-12T08:00:32.657Z,98077.25
2024-03-12T08:02:59.815Z,98072.91
2024-03-12T08:05:27.852Z,98078.38
2024-03-12T08:07:55.860Z,98056.91
2024-03-12T08:10:24.578Z,98051.09
2024-03-12T08:12:51.817Z,98051.84
2024-03-12T08:15:19.137Z,98045.16
2024-03-12T08:17:48.455Z,98063.06
2024-03-12T08:20:18.739Z,98059.03
2024-03-12T08:22:48.663Z,98054.63
2024-03-12T08:25:21.399Z,98047.00
2024-03-12T08:27:50.688Z,98028.38
2024-03-12T08:30:19.759Z,98014.25
2024-03-12T08:32:48.007Z,98008.50
2024-03-12T08:35:15.391Z,98010.16
2024-03-12T08:37:43.153Z,98021.09
2024-03-12T08:40:14.298Z,98024.53
2024-03-12T08:42:47.709Z,98029.53
2024-03-12T08:45:24.686Z,98026.88
2024-03-12T08:47:52.870Z,98027.13
2024-03-12T08:50:20.129Z,98021.97
2024-03-12T08:52:47.569Z,98034.28
2024-03-12T08:55:15.235Z,98030.16
2024-03-12T08:57:43.285Z,98029.47
2024-03-12T09:00:14.206Z,98027.03
2024-03-12T09:02:42.909Z,98019.09
2024-03-12T09:05:10.714Z,98020.63
2024-03-12T09:07:38.373Z,98014.47
2024-03-12T09:10:24.572Z,98020.63
2024-03-12T09:12:51.878Z,98019.72
2024-03-12T09:15:19.071Z,98027.75
2024-03-12T09:17:48.653Z,98021.97
2024-03-12T09:20:16.371Z,98031.59
2024-03-12T09:22:45.910Z,98038.50
2024-03-12T09:25:14.167Z,98047.50
2024-03-12T09:27:42.316Z,98049.03
2024-03-12T09:30:11.841Z,98042.94
2024-03-12T09:32:40.864Z,98050.00
2024-03-12T09:35:10.204Z,98057.97
2024-03-12T09:37:38.465Z,98068.28
2024-03-12T09:40:10.043Z,98066.22
2024-03-12T09:42:39.251Z,98062.94
2024-03-12T09:45:08.313Z,98071.53
2024-03-12T09:47:39.398Z,98066.25
2024-03-12T09:50:12.406Z,98069.53
2024-03-12T09:52:44.370Z,98064.69
2024-03-12T09:55:12.386Z,98062.38
2024-03-12T09:57:40.148Z,98057.84
2024-03-12T10:00:13.079Z,98054.59
2024-03-12T10:02:40.338Z,98050.34
2024-03-12T10:05:11.188Z,98050.78
2024-03-12T10:08:00.098Z,98039.00
2024-03-12T10:10:28.729Z,98050.47
2024-03-12T10:12:56.107Z,98052.63
2024-03-12T10:15:24.368Z,98046.34
2024-03-12T10:17:59.078Z,98049.25
2024-03-12T10:20:26.481Z,98038.44
2024-03-12T10:23:05.984Z,98041.81
2024-03-12T10:25:37.602Z,98047.47
2024-03-12T10:28:08.957Z,98048.88
2024-03-12T10:30:39.421Z,98031.31
2024-03-12T10:33:19.145Z,98018.88
2024-03-12T10:35:47.147Z,98022.75
2024-03-12T10:38:25.620Z,98014.50
2024-03-12T10:40:56.796Z,98020.50
2024-03-12T10:43:25.526Z,98014.75
2024-03-12T10:45:53.265Z,98009.63
2024-03-12T10:48:22.203Z,98008.38
2024-03-12T10:50:49.767Z,98017.31
2024-03-12T10:53:17.775Z,98005.22
2024-03-12T10:55:46.007Z,98004.34
2024-03-12T10:58:16.766Z,98000.69
2024-03-12T11:00:45.926Z,97995.75
2024-03-12T11:03:14.914Z,97996.19
2024-03-12T11:05:44.480Z,97994.22
2024-03-12T11:08:13.457Z,97985.41
2024-03-12T11:10:43.421Z,97974.75
2024-03-12T11:13:11.169Z,97971.44
2024-03-12T11:15:41.461Z,97973.94
2024-03-12T11:18:10.717Z,97965.50
2024-03-12T11:20:40.697Z,97956.16
2024-03-12T11:23:08.519Z,97959.13
2024-03-12T11:25:49.957Z,97960.44
2024-03-12T11:28:23.585Z,97953.09
2024-03-12T11:31:03.294Z,97958.13
2024-03-12T11:33:50.720Z,97952.50
2024-03-12T11:36:26.979Z,97950.81
2024-03-12T11:38:54.422Z,97946.72
2024-03-12T11:41:22.531Z,97944.06
2024-03-12T11:43:50.159Z,97935.63
2024-03-12T11:46:22.736Z,97946.00
2024-03-12T11:48:53.236Z,97939.69
2024-03-12T11:51:20.757Z,97936.34
2024-03-12T11:53:48.990Z,97930.81
2024-03-12T11:56:20.361Z,97921.50
2024-03-12T11:58:57.579Z,97926.22
2024-03-12T12:01:36.008Z,97921.84
2024-03-12T12:04:05.239Z,97918.53
2024-03-12T12:06:33.360Z,97920.94
2024-03-12T12:09:06.886Z,97921.00
2024-03-12T12:11:36.210Z,97918.22
2024-03-12T12:14:07.155Z,97915.34
2024-03-12T12:16:36.632Z,97913.66
2024-03-12T12:19:06.835Z,97908.56
2024-03-12T12:21:34.980Z,97914.13
2024-03-12T12:24:04.419Z,97906.28
2024-03-12T12:26:37.562Z,97903.19
2024-03-12T12:29:08.047Z,97901.16
2024-03-12T12:31:38.160Z,97908.06
2024-03-12T12:34:07.775Z,97900.81
2024-03-12T12:36:39.804Z,97898.41
2024-03-12T12:39:11.526Z,97888.69
2024-03-12T12:41:44.382Z,97890.06
2024-03-12T12:44:17.968Z,97887.50
2024-03-12T12:46:49.357Z,97883.78
2024-03-12T12:49:18.683Z,97884.22
2024-03-12T12:51:47.849Z,97876.63
2024-03-12T12:54:19.958Z,97871.38
2024-03-12T12:56:47.901Z,97866.72
2024-03-12T12:59:20.215Z,97868.59
2024-03-12T13:01:52.089Z,97869.41
2024-03-12T13:04:21.351Z,97869.88
2024-03-12T13:06:49.194Z,97864.34
2024-03-12T13:09:28.968Z,97864.84
2024-03-12T13:11:56.844Z,97872.19
2024-03-12T13:14:24.674Z,97855.41
2024-03-12T13:16:53.296Z,97859.41
2024-03-12T13:19:21.221Z,97854.06
2024-03-12T13:21:49.605Z,97854.66
2024-03-12T13:24:16.962Z,97850.63
2024-03-12T13:26:44.191Z,97847.75
2024-03-12T13:29:11.384Z,97849.09
2024-03-12T13:31:38.970Z,97835.25
2024-03-12T13:34:09.388Z,97849.88
2024-03-12T13:36:36.740Z,97845.59
2024-03-12T13:39:07.832Z,97844.66
2024-03-12T13:41:36.374Z,97844.19
2024-03-12T13:44:03.941Z,97837.28
2024-03-12T13:46:32.180Z,97849.88
2024-03-12T13:49:16.834Z,97845.00
2024-03-12T13:51:46.532Z,97849.78
2024-03-12T13:54:13.870Z,97845.22
2024-03-12T13:56:41.436Z,97851.47
2024-03-12T13:59:09.069Z,97850.88
2024-03-12T14:01:36.524Z,97841.22
2024-03-12T14:04:04.114Z,97849.44
2024-03-12T14:06:35.018Z,97840.50
2024-03-12T14:09:02.421Z,97836.56
2024-03-12T14:11:30.593Z,97837.75
2024-03-12T14:13:57.843Z,97834.78
2024-03-12T14:16:25.880Z,97851.41
2024-03-12T14:18:54.625Z,97848.88
2024-03-12T14:21:22.394Z,97846.66
2024-03-12T14:23:51.362Z,97857.19
2024-03-12T14:26:19.344Z,97857.31
2024-03-12T14:28:47.392Z,97863.88
2024-03-12T14:31:15.400Z,97870.53
2024-03-12T14:33:43.178Z,97875.16
2024-03-12T14:36:10.771Z,97867.97
2024-03-12T14:38:38.749Z,97877.75
2024-03-12T14:41:07.912Z,97889.34
2024-03-12T14:43:35.425Z,97890.47
2024-03-12T14:46:04.112Z,97884.31
2024-03-12T14:48:32.657Z,97885.91
2024-03-12T14:51:01.073Z,97882.25
2024-03-12T14:53:28.811Z,97891.13
2024-03-12T14:55:57.546Z,97892.19
2024-03-12T14:58:29.244Z,97894.06
2024-03-12T15:00:56.742Z,97899.56
2024-03-12T15:03:23.977Z,97903.97
2024-03-12T15:05:55.168Z,97913.09
2024-03-12T15:08:24.267Z,97915.69
2024-03-12T15:10:51.843Z,97914.69
2024-03-12T15:13:19.175Z,97922.19
2024-03-12T15:15:47.933Z,97925.84
2024-03-12T15:18:15.237Z,97918.31
2024-03-12T15:20:43.164Z,97929.44
2024-03-12T15:23:10.647Z,97926.84
2024-03-12T15:25:38.105Z,97941.09
2024-03-12T15:28:05.998Z,97940.84
2024-03-12T15:30:34.933Z,97950.41
2024-03-12T15:33:07.669Z,97954.53
2024-03-12T15:35:37.958Z,97953.97
2024-03-12T15:38:06.450Z,97959.09
2024-03-12T15:40:33.869Z,97979.75
2024-03-12T15:43:01.716Z,97988.22
2024-03-12T15:45:28.924Z,98000.75
2024-03-12T15:47:56.110Z,98003.19
2024-03-12T15:50:26.150Z,97989.53
2024-03-12T15:52:55.020Z,97999.22
2024-03-12T15:55:23.121Z,98000.50
2024-03-12T15:57:50.769Z,97999.56
2024-03-12T16:00:18.539Z,98003.44
2024-03-12T16:02:48.003Z,97997.47
2024-03-12T16:05:16.145Z,97996.22
2024-03-12T16:07:48.962Z,98001.44
2024-03-12T16:10:16.526Z,97993.47
2024-03-12T16:12:46.336Z,97995.34
2024-03-12T16:15:14.305Z,97980.41
2024-03-12T16:17:41.589Z,97989.78
2024-03-12T16:20:20.504Z,97984.41
2024-03-12T16:22:49.398Z,97986.28
2024-03-12T16:25:16.886Z,97981.41
2024-03-12T16:27:46.888Z,97986.34
2024-03-12T16:30:15.946Z,97981.56
2024-03-12T16:32:44.781Z,97985.09
2024-03-12T16:35:12.231Z,97985.59
2024-03-12T16:37:39.875Z,97992.03
2024-03-12T16:40:10.686Z,97990.72
2024-03-12T16:42:38.278Z,98000.81
2024-03-12T16:45:07.023Z,97995.66
2024-03-12T16:47:34.773Z,97993.59
2024-03-12T16:50:05.718Z,97999.53
2024-03-12T16:52:33.167Z,97999.53
2024-03-12T16:55:02.649Z,97995.16
2024-03-12T16:57:35.273Z,97988.97
2024-03-12T17:00:04.554Z,97996.41
2024-03-12T17:02:44.442Z,98004.59
2024-03-12T17:05:14.065Z,98012.00
2024-03-12T17:07:42.610Z,98024.34
2024-03-12T17:10:10.939Z,98036.31
2024-03-12T17:12:41.211Z,98025.97
2024-03-12T17:15:15.398Z,98028.13
2024-03-12T17:17:44.375Z,98029.53
2024-03-12T17:20:12.116Z,98039.50
2024-03-12T17:22:41.665Z,98033.94
2024-03-12T17:25:11.599Z,98036.50
2024-03-12T17:27:42.729Z,98043.16
2024-03-12T17:30:12.112Z,98045.91
2024-03-12T17:32:41.846Z,98044.03
2024-03-12T17:35:12.790Z,98054.53
2024-03-12T17:37:42.773Z,98050.13
2024-03-12T17:40:15.677Z,98051.53
2024-03-12T17:42:45.811Z,98052.88
2024-03-12T17:45:14.437Z,98050.59
2024-03-12T17:47:48.233Z,98053.72
2024-03-12T17:50:21.176Z,98054.03
2024-03-12T17:52:50.396Z,98059.34
2024-03-12T17:55:18.829Z,98064.22
2024-03-12T17:57:48.257Z,98059.06
2024-03-12T18:00:19.904Z,98065.75
2024-03-12T18:02:49.521Z,98063.75
2024-03-12T18:05:18.514Z,98059.91
2024-03-12T18:07:47.075Z,98064.81
2024-03-12T18:10:16.797Z,98058.41
2024-03-12T18:12:46.252Z,98054.56
2024-03-12T18:15:20.009Z,98055.59
2024-03-12T18:17:48.696Z,98055.34
2024-03-12T18:20:30.940Z,98064.88
2024-03-12T18:22:59.517Z,98060.75
2024-03-12T18:25:26.948Z,98066.16
2024-03-12T18:27:58.401Z,98073.09
2024-03-12T18:30:28.267Z,98064.81
2024-03-12T18:32:55.941Z,98069.44
2024-03-12T18:35:23.383Z,98062.16
2024-03-12T18:37:52.037Z,98057.97
2024-03-12T18:40:20.830Z,98064.34
2024-03-12T18:42:49.534Z,98063.81
2024-03-12T18:45:20.591Z,98066.88
2024-03-12T18:47:51.439Z,98053.88
2024-03-12T18:50:21.110Z,98061.53
2024-03-12T18:52:48.842Z,98060.00
2024-03-12T18:55:18.280Z,98053.75
2024-03-12T18:57:46.807Z,98060.91
2024-03-12T19:00:24.298Z,98058.81
2024-03-12T19:02:55.001Z,98060.75
2024-03-12T19:05:25.292Z,98059.97
2024-03-12T19:07:55.059Z,98060.13
2024-03-12T19:10:25.244Z,98064.09
2024-03-12T19:12:56.641Z,98062.22
2024-03-12T19:15:26.661Z,98055.41
2024-03-12T19:17:56.851Z,98058.44
2024-03-12T19:20:26.454Z,98055.88
2024-03-12T19:22:55.259Z,98043.69
2024-03-12T19:25:23.686Z,98050.88
2024-03-12T19:27:52.275Z,98053.97
2024-03-12T19:30:20.679Z,98053.75
2024-03-12T19:32:50.110Z,98060.69
2024-03-12T19:35:19.906Z,98055.22
2024-03-12T19:37:48.698Z,98060.38
2024-03-12T19:40:22.926Z,98061.06
2024-03-12T19:42:51.376Z,98064.72
2024-03-12T19:45:22.149Z,98063.16
2024-03-12T19:47:52.530Z,98060.56
2024-03-12T19:50:29.386Z,98056.41
2024-03-12T19:52:57.094Z,98056.19
2024-03-12T19:55:31.376Z,98056.97
2024-03-12T19:58:02.659Z,98053.94
2024-03-12T20:00:31.985Z,98054.97
2024-03-12T20:03:00.929Z,98051.59
2024-03-12T20:05:31.309Z,98053.16
2024-03-12T20:07:59.184Z,98047.56
2024-03-12T20:10:29.362Z,98056.59
2024-03-12T20:12:57.020Z,98051.00
2024-03-12T20:15:24.806Z,98055.16
2024-03-12T20:17:52.453Z,98051.56
2024-03-12T20:20:19.902Z,98057.25
2024-03-12T20:22:51.977Z,98058.84
2024-03-12T20:25:20.760Z,98064.75
2024-03-12T20:27:55.316Z,98064.75
2024-03-12T20:30:28.584Z,98064.75
2024-03-12T20:32:59.464Z,98063.19
2024-03-12T20:35:33.168Z,98067.78
2024-03-12T20:38:02.217Z,98070.84
2024-03-12T20:40:29.601Z,98067.13
2024-03-12T20:43:00.328Z,98068.72
2024-03-12T20:45:30.242Z,98063.34
2024-03-12T20:47:59.057Z,98060.31
2024-03-12T20:50:26.530Z,98063.66
2024-03-12T20:52:53.781Z,98063.66
2024-03-12T20:55:22.621Z,98071.94
2024-03-12T20:57:51.113Z,98064.97
2024-03-12T21:00:24.706Z,98066.56
2024-03-12T21:02:55.001Z,98060.84
2024-03-12T21:05:22.562Z,98066.78
2024-03-12T21:07:51.664Z,98063.41
2024-03-12T21:10:20.182Z,98060.84
2024-03-12T21:12:51.138Z,98061.63
2024-03-12T21:15:19.813Z,98055.47
2024-03-12T21:17:47.611Z,98058.84
2024-03-12T21:20:23.021Z,98059.59
2024-03-12T21:22:50.865Z,98062.97
2024-03-12T21:25:19.052Z,98056.25
2024-03-12T21:27:46.755Z,98052.09
2024-03-12T21:30:17.706Z,98060.06
2024-03-12T21:32:45.149Z,98057.72
2024-03-12T21:35:13.197Z,98063.66
2024-03-12T21:37:40.716Z,98060.31
2024-03-12T21:40:17.658Z,98051.00
2024-03-12T21:42:45.601Z,98053.56
2024-03-12T21:45:16.170Z,98050.69
2024-03-12T21:47:47.011Z,98048.34
2024-03-12T21:50:16.710Z,98050.13
2024-03-12T21:52:44.429Z,98057.84
2024-03-12T21:55:12.460Z,98059.09
2024-03-12T21:57:41.046Z,98056.53
2024-03-12T22:00:20.166Z,98051.59
2024-03-12T22:02:50.251Z,98053.38
2024-03-12T22:05:20.822Z,98051.84
2024-03-12T22:07:50.797Z,98047.47
2024-03-12T22:10:19.163Z,98039.41
2024-03-12T22:12:46.899Z,98042.22
2024-03-12T22:15:16.091Z,98041.69
2024-03-12T22:17:44.884Z,98035.16
2024-03-12T22:20:20.030Z,98045.97
2024-03-12T22:22:48.337Z,98036.31
2024-03-12T22:25:15.908Z,98052.75
2024-03-12T22:27:44.980Z,98045.16
2024-03-12T22:30:12.906Z,98048.97
2024-03-12T22:32:43.326Z,98043.28
2024-03-12T22:35:11.132Z,98042.84
2024-03-12T22:37:40.551Z,98041.28
2024-03-12T22:40:13.749Z,98035.56
2024-03-12T22:42:41.932Z,98038.50
2024-03-12T22:45:12.540Z,98041.31
2024-03-12T22:47:40.836Z,98032.25
2024-03-12T22:50:09.872Z,98028.13
2024-03-12T22:52:37.647Z,98034.84
2024-03-12T22:55:08.964Z,98027.78
2024-03-12T22:57:39.668Z,98029.03
2024-03-12T23:00:31.262Z,98029.03
2024-03-12T23:03:02.370Z,98035.41
2024-03-12T23:05:34.825Z,98035.41
2024-03-12T23:08:06.583Z,98030.28
2024-03-12T23:10:37.451Z,98035.41
2024-03-12T23:13:05.168Z,98043.38
2024-03-12T23:15:32.777Z,98040.22
2024-03-12T23:18:04.059Z,98037.09
2024-03-12T23:20:32.096Z,98043.16
2024-03-12T23:22:59.496Z,98038.44
2024-03-12T23:25:26.839Z,98035.31
2024-03-12T23:27:56.547Z,98043.94
2024-03-12T23:30:26.936Z,98042.59
2024-03-12T23:32:59.240Z,98043.38
2024-03-12T23:35:28.494Z,98041.03
2024-03-12T23:37:58.822Z,98051.09
2024-03-12T23:40:26.550Z,98048.06
2024-03-12T23:42:56.366Z,98041.81
2024-03-12T23:45:27.717Z,98045.38
2024-03-12T23:47:55.117Z,98032.53
2024-03-12T23:50:22.319Z,98039.91
2024-03-12T23:52:50.009Z,98034.19
2024-03-12T23:55:17.729Z,98046.31
2024-03-12T23:57:45.168Z,98037.56
